Time;durP1;ratioP1;P1;durP2;ratioP2;P2;SDS_P1;SDS_P2;PMS_P1;PMS_P2;Temp;Humidity;BMP_temperature;BMP_pressure;BME280_temperature;BME280_humidity;BME280_pressure;Samples;Min_cycle;Max_cycle;Signal;HPM_P1;HPM_P2
2022/11/01 00:01:09;;;;;;;17.20;10.15;;;13.10;99.90;;;;;;4970798;28;20078;-78
2022/11/01 00:03:37;;;;;;;13.95;9.88;;;13.10;99.90;;;;;;4975089;28;20458;-78
2022/11/01 00:06:03;;;;;;;13.18;9.27;;;13.20;99.90;;;;;;4975175;28;20086;-78
2022/11/01 00:08:29;;;;;;;15.65;8.65;;;13.20;99.90;;;;;;4998685;28;20105;-78
2022/11/01 00:11:02;;;;;;;15.30;9.23;;;13.20;99.90;;;;;;4988322;28;20047;-78
2022/11/01 00:13:28;;;;;;;13.05;8.48;;;13.20;99.90;;;;;;4972014;28;20057;-78
2022/11/01 00:15:53;;;;;;;11.68;8.45;;;13.20;99.90;;;;;;4992104;23;20046;-78
2022/11/01 00:18:19;;;;;;;12.43;8.27;;;13.30;99.90;;;;;;4963771;28;21125;-78
2022/11/01 00:20:45;;;;;;;12.93;8.10;;;13.30;99.90;;;;;;4980487;28;20121;-79
2022/11/01 00:23:11;;;;;;;12.35;8.05;;;13.40;99.90;;;;;;4990370;28;20523;-79
2022/11/01 00:25:37;;;;;;;12.75;7.72;;;13.40;99.90;;;;;;4991231;28;20034;-79
2022/11/01 00:28:02;;;;;;;11.32;7.00;;;13.40;99.90;;;;;;4976190;28;20226;-78
2022/11/01 00:30:28;;;;;;;12.73;8.00;;;13.40;99.90;;;;;;4979723;28;20136;-79
2022/11/01 00:32:56;;;;;;;12.77;7.88;;;13.50;99.90;;;;;;4956245;28;20420;-78
2022/11/01 00:35:22;;;;;;;10.23;7.22;;;13.50;99.90;;;;;;4972428;28;20405;-78
2022/11/01 00:37:47;;;;;;;12.95;8.10;;;13.50;99.90;;;;;;4978091;28;20042;-78
2022/11/01 00:40:13;;;;;;;10.63;6.88;;;13.50;99.90;;;;;;4980578;28;20121;-78
2022/11/01 00:42:38;;;;;;;10.50;6.65;;;13.50;99.90;;;;;;4972311;28;20043;-78
2022/11/01 00:45:04;;;;;;;11.38;7.20;;;13.60;99.90;;;;;;4968931;28;20043;-79
2022/11/01 00:47:30;;;;;;;12.32;6.82;;;13.60;99.90;;;;;;4958902;28;20038;-79
2022/11/01 00:49:55;;;;;;;11.25;6.68;;;13.70;99.90;;;;;;4982819;28;20046;-78
2022/11/01 00:52:21;;;;;;;13.57;7.15;;;13.60;99.90;;;;;;4983587;28;20042;-78
2022/11/01 00:54:46;;;;;;;10.73;7.13;;;13.60;99.90;;;;;;4989827;28;20038;-79
2022/11/01 00:57:12;;;;;;;11.68;7.28;;;13.70;99.90;;;;;;4984832;28;20043;-79
2022/11/01 00:59:38;;;;;;;10.32;7.28;;;13.70;99.90;;;;;;4969803;28;20065;-79
2022/11/01 01:02:03;;;;;;;12.05;7.80;;;13.70;99.90;;;;;;4983651;28;20043;-78
2022/11/01 01:04:29;;;;;;;10.65;7.15;;;13.70;99.90;;;;;;4992174;28;20511;-78
2022/11/01 01:06:54;;;;;;;12.07;7.47;;;13.70;99.90;;;;;;4976714;28;20046;-78
2022/11/01 01:09:20;;;;;;;11.50;7.18;;;13.70;99.90;;;;;;4967375;28;20530;-79
2022/11/01 01:11:46;;;;;;;12.77;7.32;;;13.70;99.90;;;;;;5006620;28;20485;-78
2022/11/01 01:14:11;;;;;;;12.02;7.13;;;13.60;99.90;;;;;;4994031;28;20045;-78
2022/11/01 01:16:37;;;;;;;10.88;6.75;;;13.60;99.90;;;;;;4983407;28;20102;-79
2022/11/01 01:19:02;;;;;;;11.73;6.72;;;13.60;99.90;;;;;;4960753;28;20038;-79
2022/11/01 01:21:28;;;;;;;9.15;6.90;;;13.70;99.90;;;;;;4964631;28;20046;-78
2022/11/01 01:23:53;;;;;;;9.57;6.63;;;13.60;99.90;;;;;;4986974;28;20503;-78
2022/11/01 01:26:19;;;;;;;10.98;6.45;;;13.60;99.90;;;;;;5002212;28;20038;-79
2022/11/01 01:28:45;;;;;;;10.48;6.40;;;13.70;99.90;;;;;;4979468;28;20488;-78
2022/11/01 01:31:12;;;;;;;10.48;7.10;;;13.70;99.90;;;;;;4983174;28;20125;-78
2022/11/01 01:33:37;;;;;;;12.57;7.00;;;13.70;99.90;;;;;;4986588;28;20042;-78
2022/11/01 01:36:04;;;;;;;9.05;6.65;;;13.70;99.90;;;;;;4961907;28;20205;-79
2022/11/01 01:38:30;;;;;;;12.02;6.38;;;13.80;99.90;;;;;;4958278;28;20531;-79
2022/11/01 01:41:54;;;;;;;12.63;6.53;;;13.80;99.90;;;;;;4986508;28;20034;-79
2022/11/01 01:43:45;;;;;;;11.38;6.82;;;13.80;99.90;;;;;;4983839;28;20046;-79
2022/11/01 01:46:10;;;;;;;10.80;6.82;;;13.80;99.90;;;;;;4988908;28;20097;-78
2022/11/01 01:48:40;;;;;;;11.43;6.85;;;13.90;99.90;;;;;;4994411;28;20042;-79
2022/11/01 01:51:09;;;;;;;12.98;6.47;;;13.90;99.90;;;;;;4986750;28;20042;-78
2022/11/01 01:53:42;;;;;;;9.90;5.90;;;13.90;99.90;;;;;;4995798;28;20050;-78
2022/11/01 01:56:13;;;;;;;12.27;6.38;;;13.90;99.90;;;;;;4995284;28;20120;-79
2022/11/01 01:58:50;;;;;;;13.20;6.70;;;13.90;99.90;;;;;;5004316;28;20042;-78
2022/11/01 02:01:16;;;;;;;11.07;6.32;;;14.00;99.90;;;;;;4983481;28;20038;-78
2022/11/01 02:03:43;;;;;;;9.15;6.10;;;14.00;99.90;;;;;;4987451;28;20039;-78
2022/11/01 02:06:10;;;;;;;9.88;6.20;;;13.90;99.90;;;;;;4960975;28;20043;-78
2022/11/01 02:08:38;;;;;;;10.18;6.28;;;13.90;99.90;;;;;;4962556;28;20048;-79
2022/11/01 02:11:06;;;;;;;12.60;6.57;;;13.90;99.90;;;;;;4986218;28;20480;-79
2022/11/01 02:13:32;;;;;;;8.77;6.53;;;13.90;99.90;;;;;;4984723;28;20129;-79
2022/11/01 02:16:00;;;;;;;9.60;5.80;;;13.90;99.90;;;;;;4981962;28;20124;-79
2022/11/01 02:18:36;;;;;;;9.77;6.10;;;13.90;99.90;;;;;;4978967;28;20038;-79
2022/11/01 02:21:45;;;;;;;9.48;6.18;;;13.90;99.90;;;;;;4985679;28;20301;-79
2022/11/01 02:24:19;;;;;;;8.85;6.20;;;13.90;99.90;;;;;;4978163;28;20456;-79
2022/11/01 02:27:10;;;;;;;8.68;5.90;;;13.90;99.90;;;;;;4985571;28;20042;-78
2022/11/01 02:30:10;;;;;;;9.10;6.22;;;13.90;99.90;;;;;;5001626;28;20042;-79
2022/11/01 02:32:50;;;;;;;11.60;6.05;;;13.90;99.90;;;;;;4970855;28;20055;-79
2022/11/01 02:35:25;;;;;;;10.10;6.75;;;13.90;99.90;;;;;;4970816;28;20044;-79
2022/11/01 02:38:10;;;;;;;9.57;6.03;;;13.90;99.90;;;;;;4985558;28;20074;-78
2022/11/01 02:41:15;;;;;;;12.90;6.43;;;13.90;99.90;;;;;;4994203;28;20042;-78
2022/11/01 02:44:03;;;;;;;11.77;6.75;;;13.90;99.90;;;;;;4963608;28;20039;-78
2022/11/01 02:49:25;;;;;;;11.63;6.45;;;13.90;99.90;;;;;;4984200;28;20094;-78
2022/11/01 02:51:52;;;;;;;10.90;6.35;;;14.00;99.90;;;;;;4978246;28;20039;-79
2022/11/01 02:54:31;;;;;;;9.57;6.28;;;14.00;99.90;;;;;;4986640;28;20071;-79
2022/11/01 02:57:30;;;;;;;11.02;6.55;;;14.00;99.90;;;;;;4984784;28;20050;-79
2022/11/01 03:00:03;;;;;;;11.60;6.50;;;14.10;99.90;;;;;;4962471;28;20133;-79
2022/11/01 03:02:40;;;;;;;10.50;6.20;;;14.10;99.90;;;;;;4982003;28;20042;-79
2022/11/01 03:05:08;;;;;;;9.13;6.35;;;14.10;99.90;;;;;;4957714;28;20046;-80
2022/11/01 03:07:33;;;;;;;10.98;6.55;;;14.20;99.90;;;;;;4957740;28;20043;-79
2022/11/01 03:10:00;;;;;;;8.48;5.90;;;14.30;99.90;;;;;;4972338;28;20058;-79
2022/11/01 03:12:31;;;;;;;9.05;6.03;;;14.30;99.90;;;;;;4969284;28;20042;-79
2022/11/01 03:15:20;;;;;;;13.02;6.63;;;14.30;99.90;;;;;;4993848;28;20050;-79
2022/11/01 03:17:58;;;;;;;10.40;6.28;;;14.40;99.90;;;;;;4988870;28;20049;-79
2022/11/01 03:20:46;;;;;;;10.85;6.57;;;14.40;99.90;;;;;;5001203;28;20092;-79
2022/11/01 03:23:25;;;;;;;9.40;6.10;;;14.40;99.90;;;;;;4993657;28;20485;-79
2022/11/01 03:25:54;;;;;;;8.13;6.45;;;14.40;99.90;;;;;;4993673;28;20683;-80
2022/11/01 03:28:33;;;;;;;10.23;5.80;;;14.30;99.90;;;;;;4991020;28;20050;-79
2022/11/01 03:31:17;;;;;;;11.05;6.20;;;14.30;99.90;;;;;;4984194;28;20088;-79
2022/11/01 03:33:50;;;;;;;7.70;5.60;;;14.40;99.90;;;;;;4951866;28;20038;-79
2022/11/01 03:36:19;;;;;;;11.35;6.20;;;14.30;99.90;;;;;;4957197;28;20085;-79
2022/11/01 03:39:15;;;;;;;12.88;6.07;;;14.40;99.90;;;;;;4961500;28;20088;-79
2022/11/01 03:41:48;;;;;;;8.85;5.57;;;14.40;99.90;;;;;;4978139;28;20429;-79
2022/11/01 03:44:13;;;;;;;;;;;14.40;99.90;;;;;;4994026;28;20026;-79
2022/11/01 03:46:40;;;;;;;10.10;6.40;;;14.50;99.90;;;;;;4998158;28;20391;-79
2022/11/01 03:49:06;;;;;;;10.80;5.93;;;14.50;99.90;;;;;;4966480;28;20053;-79
2022/11/01 03:51:32;;;;;;;8.52;5.82;;;14.60;99.90;;;;;;4981089;28;20409;-79
2022/11/01 03:53:57;;;;;;;10.43;6.35;;;14.60;99.90;;;;;;4957046;28;20125;-79
2022/11/01 03:56:23;;;;;;;11.43;6.00;;;14.70;99.90;;;;;;4989850;28;20405;-79
2022/11/01 03:58:48;;;;;;;9.68;5.85;;;14.70;99.90;;;;;;4949855;28;20043;-79
2022/11/01 04:01:16;;;;;;;9.05;5.18;;;14.70;99.90;;;;;;4974338;28;20539;-79
2022/11/01 04:03:42;;;;;;;10.13;6.05;;;14.80;99.90;;;;;;4990063;28;20031;-78
2022/11/01 04:06:08;;;;;;;8.52;5.68;;;14.80;99.90;;;;;;4957285;28;20105;-80
2022/11/01 04:08:35;;;;;;;8.55;5.63;;;14.80;99.90;;;;;;4960937;28;20049;-79
2022/11/01 04:11:02;;;;;;;9.05;4.93;;;14.80;99.90;;;;;;4982884;28;20046;-79
2022/11/01 04:13:27;;;;;;;10.48;5.88;;;14.80;99.90;;;;;;5002647;28;20053;-78
2022/11/01 04:21:39;;;;;;;8.25;5.53;;;14.80;99.90;;;;;;4984150;28;20105;-79
2022/11/01 04:24:05;;;;;;;9.90;5.70;;;14.80;99.90;;;;;;4984451;28;20042;-80
2022/11/01 04:26:30;;;;;;;10.73;6.03;;;14.90;99.90;;;;;;4951415;28;20053;-78
2022/11/01 04:28:56;;;;;;;8.43;5.35;;;14.90;99.90;;;;;;4970195;28;20072;-78
2022/11/01 04:31:31;;;;;;;8.20;5.45;;;14.80;99.90;;;;;;5000675;28;20456;-79
2022/11/01 04:33:58;;;;;;;11.65;5.47;;;14.90;99.90;;;;;;4992342;28;20489;-78
2022/11/01 04:36:24;;;;;;;6.40;5.07;;;14.80;99.90;;;;;;4992128;28;20042;-78
2022/11/01 04:38:54;;;;;;;10.75;5.60;;;14.90;99.90;;;;;;4980203;28;20420;-78
2022/11/01 04:41:21;;;;;;;11.65;5.90;;;14.90;99.90;;;;;;4963819;28;20078;-79
2022/11/01 04:43:48;;;;;;;9.85;5.50;;;14.90;99.90;;;;;;4957185;28;20030;-79
2022/11/01 04:46:14;;;;;;;8.18;5.55;;;14.90;99.90;;;;;;4956357;28;20047;-78
2022/11/01 04:48:40;;;;;;;8.77;5.43;;;14.80;99.90;;;;;;4961309;28;20472;-79
2022/11/01 04:51:07;;;;;;;9.20;5.30;;;14.90;99.90;;;;;;4973969;28;20077;-79
2022/11/01 04:53:33;;;;;;;6.80;4.82;;;14.90;99.90;;;;;;4955941;28;20054;-78
2022/11/01 04:56:01;;;;;;;12.27;5.13;;;14.90;99.90;;;;;;4956592;28;20305;-80
2022/11/01 04:58:27;;;;;;;6.60;4.97;;;14.90;99.90;;;;;;4966543;28;20047;-79
2022/11/01 05:00:52;;;;;;;8.00;4.53;;;14.90;99.90;;;;;;4984390;28;20057;-79
2022/11/01 05:03:18;;;;;;;9.38;5.10;;;14.90;99.90;;;;;;4992531;28;20105;-79
2022/11/01 05:05:43;;;;;;;7.60;5.30;;;14.90;99.90;;;;;;4971857;28;20039;-79
2022/11/01 05:08:11;;;;;;;9.80;5.10;;;15.00;99.90;;;;;;4967424;28;20140;-79
2022/11/01 05:10:42;;;;;;;8.68;4.82;;;15.10;99.90;;;;;;4972137;28;20053;-79
2022/11/01 05:13:09;;;;;;;6.47;4.82;;;15.10;99.90;;;;;;4956710;28;20042;-79
2022/11/01 05:15:35;;;;;;;8.48;4.72;;;15.10;99.90;;;;;;4962171;28;20043;-79
2022/11/01 05:18:01;;;;;;;9.40;4.95;;;15.10;99.90;;;;;;4979621;28;20412;-79
2022/11/01 05:20:27;;;;;;;6.57;4.43;;;14.90;99.90;;;;;;4975193;28;20034;-79
2022/11/01 05:22:58;;;;;;;6.22;4.22;;;15.00;99.90;;;;;;4981115;28;20038;-80
2022/11/01 05:25:24;;;;;;;5.85;4.03;;;15.00;99.90;;;;;;4975623;28;20043;-80
2022/11/01 05:27:49;;;;;;;4.45;2.20;;;15.10;99.90;;;;;;4983244;28;20042;-80
2022/11/01 05:30:15;;;;;;;5.03;1.40;;;15.00;99.90;;;;;;4975889;28;20044;-82
2022/11/01 05:32:41;;;;;;;4.63;1.52;;;14.80;99.90;;;;;;4977530;28;20056;-79
2022/11/01 05:35:06;;;;;;;3.28;1.35;;;14.70;99.90;;;;;;4976641;28;20043;-79
2022/11/01 05:37:34;;;;;;;3.13;1.00;;;14.60;99.90;;;;;;5001865;28;20514;-80
2022/11/01 05:40:00;;;;;;;2.45;1.08;;;14.50;99.90;;;;;;4970676;28;20034;-81
2022/11/01 05:42:26;;;;;;;4.25;1.42;;;14.30;99.90;;;;;;4997578;28;20042;-80
2022/11/01 05:44:51;;;;;;;3.88;1.20;;;14.20;99.90;;;;;;4976697;28;20505;-80
2022/11/01 05:47:17;;;;;;;4.85;1.20;;;14.10;99.90;;;;;;4982230;28;20041;-80
2022/11/01 05:49:43;;;;;;;3.28;1.00;;;14.00;99.90;;;;;;4999728;28;20042;-80
2022/11/01 05:52:08;;;;;;;2.78;1.05;;;13.90;99.90;;;;;;4966031;28;20042;-80
2022/11/01 05:54:34;;;;;;;2.28;0.82;;;13.80;99.90;;;;;;4998195;28;20178;-81
2022/11/01 05:56:59;;;;;;;3.00;1.38;;;13.80;99.90;;;;;;4980723;28;20062;-80
2022/11/01 05:59:25;;;;;;;4.43;1.08;;;13.70;99.90;;;;;;4972950;28;20512;-79
2022/11/01 06:01:51;;;;;;;6.63;1.10;;;13.70;99.90;;;;;;5001743;28;20073;-79
2022/11/01 06:04:16;;;;;;;4.63;1.05;;;13.60;99.90;;;;;;5008728;28;20049;-81
2022/11/01 06:06:42;;;;;;;6.82;1.45;;;13.60;99.90;;;;;;5003291;28;20132;-80
2022/11/01 06:09:08;;;;;;;4.65;1.10;;;13.60;99.90;;;;;;5004363;28;20411;-80
2022/11/01 06:11:34;;;;;;;3.75;1.08;;;13.60;99.90;;;;;;4978811;28;20042;-80
2022/11/01 06:13:59;;;;;;;4.00;1.27;;;13.60;99.90;;;;;;4985244;28;20041;-80
2022/11/01 06:16:39;;;;;;;4.85;1.20;;;13.60;99.90;;;;;;5024011;23;20049;-80
2022/11/01 06:19:34;;;;;;;1.58;1.20;;;13.50;99.90;;;;;;4981283;28;20518;-81
2022/11/01 06:22:31;;;;;;;2.80;0.93;;;13.40;99.90;;;;;;4996269;28;20113;-80
2022/11/01 06:25:13;;;;;;;2.88;1.10;;;13.30;99.90;;;;;;4988669;28;20624;-80
2022/11/01 06:27:51;;;;;;;5.57;1.70;;;13.30;99.90;;;;;;4975491;28;20046;-81
2022/11/01 06:30:44;;;;;;;2.65;1.10;;;13.30;99.90;;;;;;4970111;28;20274;-80
2022/11/01 06:33:24;;;;;;;2.97;1.00;;;13.10;99.90;;;;;;4981053;28;20514;-80
2022/11/01 06:36:09;;;;;;;4.85;1.40;;;13.20;99.90;;;;;;4978520;28;20038;-81
2022/11/01 06:39:07;;;;;;;4.82;0.95;;;13.10;99.90;;;;;;4949974;28;20578;-80
2022/11/01 06:46:23;;;;;;;5.05;1.23;;;13.10;99.90;;;;;;4929890;29;20048;-80
2022/11/01 06:49:13;;;;;;;5.07;1.20;;;13.10;99.90;;;;;;4921415;28;20126;-80
2022/11/01 06:51:58;;;;;;;;;;;;;;;;;;;;;
2022/11/01 06:55:01;;;;;;;3.35;1.00;;;13.00;99.90;;;;;;4969108;28;20057;-80
2022/11/01 06:58:50;;;;;;;2.65;1.23;;;13.00;99.90;;;;;;4984558;28;20057;-80
2022/11/01 07:02:28;;;;;;;;;;;;;;;;;;;;;
2022/11/01 07:05:13;;;;;;;3.00;0.80;;;13.00;99.90;;;;;;4939053;28;20035;-80
2022/11/01 07:11:47;;;;;;;3.40;1.15;;;13.00;99.90;;;;;;4911458;29;19943;-82
2022/11/01 07:18:50;;;;;;;4.30;1.15;;;13.10;99.90;;;;;;4897897;29;20063;-81
2022/11/01 07:28:44;;;;;;;3.00;1.10;;;13.30;99.90;;;;;;5320137;23;20063;-80
2022/11/01 07:31:22;;;;;;;4.57;0.90;;;13.40;99.90;;;;;;4936036;28;20043;-80
2022/11/01 07:33:55;;;;;;;3.83;0.98;;;13.40;99.90;;;;;;4938788;28;20039;-80
2022/11/01 07:36:27;;;;;;;5.47;1.10;;;13.40;99.90;;;;;;4960435;28;20118;-79
2022/11/01 07:38:57;;;;;;;3.10;0.98;;;13.30;99.90;;;;;;4939475;28;20500;-80
2022/11/01 07:41:34;;;;;;;3.97;1.15;;;13.30;99.90;;;;;;4955016;28;20046;-80
2022/11/01 07:44:04;;;;;;;5.57;1.05;;;13.30;99.90;;;;;;4961916;28;20104;-80
2022/11/01 07:46:53;;;;;;;3.67;0.90;;;13.20;99.90;;;;;;4954527;28;20047;-81
2022/11/01 07:49:43;;;;;;;8.10;1.80;;;13.20;99.90;;;;;;4964628;28;20042;-81
2022/11/01 07:52:12;;;;;;;7.38;1.40;;;13.20;99.90;;;;;;4944666;28;20036;-80
2022/11/01 07:54:59;;;;;;;6.57;1.40;;;13.20;99.90;;;;;;4948619;28;20062;-81
2022/11/01 07:57:38;;;;;;;6.05;1.55;;;13.20;99.90;;;;;;4954569;28;20137;-80
2022/11/01 08:00:13;;;;;;;7.13;1.40;;;13.20;99.90;;;;;;4939902;28;20074;-80
2022/11/01 08:02:44;;;;;;;5.80;1.48;;;13.20;99.90;;;;;;4941496;28;20087;-78
2022/11/01 08:05:22;;;;;;;10.85;2.17;;;13.30;99.90;;;;;;4948713;28;20125;-79
2022/11/01 08:08:08;;;;;;;7.57;1.80;;;13.40;99.90;;;;;;4938646;28;20505;-80
2022/11/01 08:10:52;;;;;;;5.88;1.67;;;13.50;99.90;;;;;;4920115;28;20194;-79
2022/11/01 08:13:24;;;;;;;12.02;1.98;;;13.70;99.90;;;;;;4940393;28;20046;-78
2022/11/01 08:15:52;;;;;;;10.55;2.25;;;13.80;99.90;;;;;;4942901;28;20178;-78
2022/11/01 08:18:23;;;;;;;11.60;2.15;;;13.90;99.90;;;;;;4938446;28;20043;-78
2022/11/01 08:20:51;;;;;;;10.95;2.10;;;14.00;99.90;;;;;;4953215;28;20587;-77
2022/11/01 08:23:32;;;;;;;8.10;2.33;;;14.00;99.90;;;;;;4947892;28;20513;-79
2022/11/01 08:26:05;;;;;;;8.93;2.05;;;14.10;99.90;;;;;;4950571;28;20046;-79
2022/11/01 08:28:36;;;;;;;14.88;2.22;;;14.10;99.90;;;;;;4953496;28;20047;-79
2022/11/01 08:34:50;;;;;;;12.27;2.67;;;14.10;99.90;;;;;;4960504;28;20054;-80
2022/11/01 08:37:22;;;;;;;9.75;2.13;;;14.10;99.90;;;;;;4940926;28;20050;-80
2022/11/01 08:39:48;;;;;;;6.85;1.75;;;14.00;99.90;;;;;;4942238;28;20049;-81
2022/11/01 08:42:22;;;;;;;10.13;2.15;;;14.00;99.90;;;;;;4943083;28;20038;-79
2022/11/01 08:44:54;;;;;;;10.18;2.17;;;13.90;99.90;;;;;;4944384;28;20074;-80
2022/11/01 08:50:16;;;;;;;12.52;2.10;;;13.80;99.90;;;;;;4977343;28;20042;-81
2022/11/01 08:52:52;;;;;;;10.63;2.40;;;13.70;99.90;;;;;;4944469;28;20042;-79
2022/11/01 08:55:27;;;;;;;8.05;1.90;;;13.70;99.90;;;;;;4942706;28;20046;-81
2022/11/01 08:58:05;;;;;;;8.90;1.90;;;13.70;99.90;;;;;;4958772;28;20042;-80
2022/11/01 09:00:39;;;;;;;9.98;2.28;;;13.70;99.90;;;;;;4960744;28;20046;-81
2022/11/01 09:03:23;;;;;;;9.60;2.15;;;13.70;99.90;;;;;;4934766;28;20038;-80
2022/11/01 09:06:20;;;;;;;9.98;1.95;;;13.70;99.90;;;;;;4959106;28;20583;-81
2022/11/01 09:08:50;;;;;;;12.25;2.47;;;13.70;99.90;;;;;;4935075;28;20075;-80
2022/11/01 09:11:31;;;;;;;;;;;;;;;;;;;;;
2022/11/01 09:17:06;;;;;;;9.55;1.85;;;13.80;99.90;;;;;;4945631;28;20138;-81
2022/11/01 09:19:36;;;;;;;9.73;1.95;;;13.80;99.90;;;;;;4944892;28;20102;-80
2022/11/01 09:22:24;;;;;;;11.90;2.67;;;13.80;99.90;;;;;;4944107;28;20051;-83
2022/11/01 09:25:40;;;;;;;9.13;2.08;;;13.90;99.90;;;;;;4931006;28;20581;-81
2022/11/01 09:28:14;;;;;;;8.43;2.33;;;14.00;99.90;;;;;;4912412;28;20264;-81
2022/11/01 09:33:35;;;;;;;9.95;1.75;;;14.10;99.90;;;;;;4965070;28;20031;-80
2022/11/01 09:36:27;;;;;;;8.73;2.28;;;14.10;99.90;;;;;;4938876;28;20047;-80
2022/11/01 09:39:33;;;;;;;9.65;2.35;;;14.20;99.90;;;;;;4949279;28;20043;-81
2022/11/01 09:42:42;;;;;;;10.63;2.25;;;14.30;99.90;;;;;;4979949;28;20049;-80
2022/11/01 09:45:57;;;;;;;;;;;;;;;;;;;;;
2022/11/01 09:49:23;;;;;;;9.50;1.98;;;14.50;99.90;;;;;;4972365;28;20118;-81
2022/11/01 09:51:58;;;;;;;10.13;1.88;;;14.60;99.90;;;;;;4937993;28;20054;-80
2022/11/01 09:54:54;;;;;;;;;;;;;;;;;;;;;
2022/11/01 09:58:09;;;;;;;10.40;2.20;;;14.60;99.90;;;;;;5040212;22;20054;-83
2022/11/01 10:01:04;;;;;;;11.23;2.00;;;14.50;99.90;;;;;;4989865;28;20053;-81
2022/11/01 10:04:22;;;;;;;9.60;2.10;;;14.50;99.90;;;;;;4985381;28;20042;-81
2022/11/01 10:07:05;;;;;;;12.13;2.22;;;14.60;99.90;;;;;;4986153;28;20042;-80
2022/11/01 10:09:45;;;;;;;10.80;2.45;;;14.70;99.90;;;;;;4966367;23;20039;-78
2022/11/01 10:12:32;;;;;;;6.20;1.73;;;14.80;99.90;;;;;;4938105;29;20047;-79
2022/11/01 10:15:18;;;;;;;6.85;1.90;;;14.80;99.90;;;;;;4942318;29;20035;-79
2022/11/01 10:17:54;;;;;;;11.57;2.20;;;15.10;99.90;;;;;;4932553;29;20070;-80
2022/11/01 10:20:25;;;;;;;8.15;1.52;;;15.10;99.90;;;;;;4936098;29;20588;-79
2022/11/01 10:22:51;;;;;;;6.05;1.65;;;15.10;99.90;;;;;;4918319;29;20119;-79
2022/11/01 10:25:29;;;;;;;9.90;2.40;;;14.90;99.90;;;;;;4943995;29;20126;-79
2022/11/01 10:28:12;;;;;;;10.95;2.17;;;14.90;99.90;;;;;;4952903;29;20506;-79
2022/11/01 10:30:45;;;;;;;12.00;2.28;;;14.90;99.90;;;;;;4921253;29;20039;-78
2022/11/01 10:33:34;;;;;;;8.75;1.73;;;14.90;99.90;;;;;;4955078;29;20051;-78
2022/11/01 10:36:20;;;;;;;8.38;1.88;;;14.90;99.90;;;;;;4933599;29;20039;-77
2022/11/01 10:38:48;;;;;;;10.50;2.45;;;14.90;99.90;;;;;;4948245;28;20043;-76
2022/11/01 10:41:23;;;;;;;8.50;2.78;;;14.90;99.90;;;;;;4951253;29;20043;-78
2022/11/01 10:43:54;;;;;;;13.48;2.35;;;14.90;99.90;;;;;;4953085;29;20074;-77
2022/11/01 10:46:23;;;;;;;11.15;2.55;;;15.00;99.90;;;;;;4954772;29;20039;-77
2022/11/01 10:48:57;;;;;;;7.93;2.30;;;15.10;99.90;;;;;;4918957;29;20383;-77
2022/11/01 10:51:25;;;;;;;10.80;2.10;;;15.20;99.90;;;;;;4952322;29;20043;-77
2022/11/01 10:53:54;;;;;;;11.93;2.58;;;15.20;99.90;;;;;;4955818;29;20039;-77
2022/11/01 10:56:43;;;;;;;12.45;2.30;;;15.20;99.90;;;;;;4923597;29;20118;-78
2022/11/01 10:59:35;;;;;;;10.63;2.03;;;15.20;99.90;;;;;;4953043;29;20074;-79
2022/11/01 11:02:10;;;;;;;11.73;1.88;;;15.30;99.90;;;;;;4914771;29;20079;-78
2022/11/01 11:04:36;;;;;;;7.72;1.88;;;15.40;99.90;;;;;;4917153;29;20098;-77
2022/11/01 11:07:08;;;;;;;9.02;1.70;;;15.50;99.90;;;;;;4922080;29;20050;-77
2022/11/01 11:09:34;;;;;;;9.60;1.60;;;15.60;99.90;;;;;;4952776;28;20046;-76
2022/11/01 11:12:09;;;;;;;7.55;2.08;;;15.70;99.90;;;;;;4954644;29;20043;-76
2022/11/01 11:14:35;;;;;;;9.27;1.98;;;15.80;99.90;;;;;;4920863;29;20058;-77
2022/11/01 11:17:09;;;;;;;8.93;2.00;;;16.00;99.90;;;;;;4920331;29;20078;-78
2022/11/01 11:19:37;;;;;;;;;;;16.10;99.90;;;;;;4922603;29;20075;-77
2022/11/01 11:22:07;;;;;;;8.82;1.60;;;16.20;99.90;;;;;;4939246;29;19919;-78
2022/11/01 11:24:38;;;;;;;8.18;2.25;;;16.20;99.90;;;;;;4924570;29;20078;-78
2022/11/01 11:27:12;;;;;;;7.75;1.52;;;16.30;99.90;;;;;;4924181;29;20039;-78
2022/11/01 11:29:47;;;;;;;9.05;2.08;;;16.40;99.90;;;;;;4924752;29;20062;-78
2022/11/01 11:32:20;;;;;;;9.68;1.85;;;16.50;99.90;;;;;;4940630;29;20102;-78
2022/11/01 11:35:04;;;;;;;;;;;16.50;99.90;;;;;;4956951;29;20087;-77
2022/11/01 11:37:33;;;;;;;8.88;2.10;;;16.50;99.90;;;;;;4939916;29;19922;-78
2022/11/01 11:40:04;;;;;;;10.13;1.95;;;16.50;99.90;;;;;;4924548;29;20039;-78
2022/11/01 11:42:31;;;;;;;9.73;2.00;;;16.60;99.90;;;;;;4933451;29;20039;-78
2022/11/01 11:45:21;;;;;;;11.02;1.85;;;16.80;99.90;;;;;;4951642;29;20047;-78
2022/11/01 11:47:46;;;;;;;6.13;1.75;;;16.90;99.90;;;;;;4933690;29;20107;-80
2022/11/01 11:50:18;;;;;;;9.93;1.40;;;16.90;99.90;;;;;;4921136;29;20039;-79
2022/11/01 11:52:59;;;;;;;11.60;1.85;;;17.00;99.90;;;;;;4919195;29;20094;-76
2022/11/01 11:55:34;;;;;;;6.07;1.20;;;17.00;99.90;;;;;;4912179;29;20055;-78
2022/11/01 11:58:02;;;;;;;7.53;1.50;;;16.90;99.90;;;;;;4936167;29;20043;-77
2022/11/01 12:00:29;;;;;;;7.65;1.77;;;16.90;99.90;;;;;;4937111;29;20043;-77
2022/11/01 12:02:54;;;;;;;7.32;1.63;;;16.90;99.90;;;;;;4930874;29;20050;-78
2022/11/01 12:05:22;;;;;;;7.15;1.30;;;16.90;99.90;;;;;;4929050;29;20498;-77
2022/11/01 12:07:53;;;;;;;6.63;1.38;;;16.90;99.90;;;;;;4936529;29;20051;-77
2022/11/01 12:10:25;;;;;;;6.53;1.20;;;16.90;99.90;;;;;;4916858;29;20142;-77
2022/11/01 12:12:51;;;;;;;6.50;1.48;;;16.90;99.90;;;;;;4954447;29;20409;-76
2022/11/01 12:15:28;;;;;;;6.28;1.50;;;17.00;99.90;;;;;;4917190;29;20098;-79
2022/11/01 12:17:55;;;;;;;5.68;1.08;;;17.00;99.90;;;;;;4951675;29;20508;-78
2022/11/01 12:20:24;;;;;;;7.30;1.80;;;17.10;99.90;;;;;;4919868;29;20043;-77
2022/11/01 12:22:56;;;;;;;7.38;1.48;;;17.10;99.90;;;;;;4923438;29;20039;-77
2022/11/01 12:25:23;;;;;;;7.53;1.38;;;17.10;99.90;;;;;;4942078;29;20444;-77
2022/11/01 12:27:56;;;;;;;7.38;1.33;;;17.00;99.90;;;;;;4938332;29;20035;-79
2022/11/01 12:30:25;;;;;;;9.48;1.50;;;17.00;99.90;;;;;;4923339;29;20055;-77
2022/11/01 12:32:53;;;;;;;8.23;1.77;;;17.00;99.90;;;;;;4924986;29;20043;-77
2022/11/01 12:35:40;;;;;;;5.65;1.35;;;16.90;99.90;;;;;;4931343;29;20081;-77
2022/11/01 12:38:32;;;;;;;5.90;1.45;;;17.00;99.90;;;;;;4938555;29;20036;-77
2022/11/01 12:41:20;;;;;;;8.32;1.70;;;17.00;99.90;;;;;;4931071;29;20066;-76
2022/11/01 12:44:14;;;;;;;6.28;1.23;;;16.90;99.90;;;;;;4916166;29;20090;-76
2022/11/01 12:46:54;;;;;;;6.57;1.50;;;16.90;99.90;;;;;;4940545;29;20039;-78
2022/11/01 12:49:27;;;;;;;7.80;1.70;;;17.00;99.90;;;;;;4928926;29;20051;-76
2022/11/01 12:52:00;;;;;;;6.63;1.52;;;17.00;99.90;;;;;;4922638;29;20039;-77
2022/11/01 12:54:31;;;;;;;8.50;1.55;;;17.00;99.90;;;;;;4940720;29;20047;-77
2022/11/01 12:56:57;;;;;;;4.43;1.00;;;16.90;99.90;;;;;;4911578;29;20126;-76
2022/11/01 12:59:34;;;;;;;7.75;1.75;;;16.90;99.90;;;;;;4933925;29;20081;-77
2022/11/01 13:02:36;;;;;;;6.28;1.30;;;16.90;99.90;;;;;;4920476;29;20046;-76
2022/11/01 13:05:04;;;;;;;6.45;1.60;;;16.80;99.90;;;;;;4918592;29;20043;-76
2022/11/01 13:07:48;;;;;;;7.32;1.80;;;16.80;99.90;;;;;;4926261;29;20039;-76
2022/11/01 13:10:37;;;;;;;6.10;1.30;;;16.90;99.90;;;;;;4940830;29;20057;-76
2022/11/01 13:13:05;;;;;;;5.85;1.08;;;16.90;99.90;;;;;;4940088;29;20039;-77
2022/11/01 13:16:10;;;;;;;5.47;1.20;;;16.80;99.90;;;;;;4949950;29;20126;-77
2022/11/01 13:18:35;;;;;;;7.15;2.03;;;16.70;99.90;;;;;;4936645;28;20099;-76
2022/11/01 13:21:15;;;;;;;9.05;1.52;;;16.50;99.90;;;;;;4917969;29;20043;-76
2022/11/01 13:23:44;;;;;;;6.72;1.25;;;16.50;99.90;;;;;;4944131;29;20469;-76
2022/11/01 13:26:25;;;;;;;8.25;1.63;;;16.40;99.90;;;;;;4957590;29;20058;-76
2022/11/01 13:29:02;;;;;;;5.07;1.42;;;16.30;99.90;;;;;;4913446;29;20074;-76
2022/11/01 13:31:49;;;;;;;5.95;1.23;;;16.30;99.90;;;;;;4916906;29;20039;-76
2022/11/01 13:34:39;;;;;;;6.30;1.42;;;16.20;99.90;;;;;;4949639;29;20138;-76
2022/11/01 13:37:31;;;;;;;6.82;1.30;;;16.10;99.90;;;;;;4954835;29;20031;-77
2022/11/01 13:40:16;;;;;;;7.50;1.27;;;16.10;99.90;;;;;;4913287;29;20086;-76
2022/11/01 13:42:48;;;;;;;7.07;1.27;;;16.00;99.90;;;;;;4920718;29;20043;-77
2022/11/01 13:45:40;;;;;;;8.13;2.22;;;16.00;99.90;;;;;;4947167;29;20039;-77
2022/11/01 13:48:41;;;;;;;5.10;1.48;;;16.00;99.90;;;;;;4937083;29;20053;-75
2022/11/01 13:51:30;;;;;;;5.50;1.38;;;15.90;99.90;;;;;;4922149;29;20035;-77
2022/11/01 13:54:01;;;;;;;6.38;1.67;;;15.80;99.90;;;;;;4925544;29;20051;-76
2022/11/01 13:56:35;;;;;;;6.43;1.52;;;15.80;99.90;;;;;;4957130;29;20043;-76
2022/11/01 13:59:11;;;;;;;5.72;1.52;;;15.70;99.90;;;;;;4924202;29;20044;-76
2022/11/01 14:01:39;;;;;;;5.72;1.42;;;15.70;99.90;;;;;;4952982;28;20039;-76
2022/11/01 14:04:11;;;;;;;5.78;1.90;;;15.70;99.90;;;;;;4924626;29;20039;-78
2022/11/01 14:06:38;;;;;;;6.05;1.50;;;15.60;99.90;;;;;;4941234;29;20560;-78
2022/11/01 14:09:27;;;;;;;6.07;1.27;;;15.60;99.90;;;;;;4952465;28;20054;-79
2022/11/01 14:12:28;;;;;;;4.28;1.20;;;15.50;99.90;;;;;;4923290;29;20054;-76